Terminal Aerodrome Forecast
Issued by NWS

Home | Current Version | Previous Version | Text Only | Print | Product List | Glossary On
Versions: 1 2 3 4 5 6 7 8 9 10 11 12 13 14 15 16 17 18 19 20 21 22 23 24 25 26 27 28
000
FTUS44 KLIX 280335 AAA
TAFHDC
TAF AMD
KHDC 280335Z 2804/2824 10004KT P6SM BKN013 OVC019
     FM280600 17006KT P6SM BKN008
      TEMPO 2810/2814 BKN003
     FM281600 17010KT P6SM BKN010
     FM281800 17012KT P6SM BKN035=

USA.gov is the U.S. government's official web portal to all federal, state and local government web resources and services.